createdAt,value
2023-04-18T00:04:15.426Z,73
2023-04-18T00:07:15.133Z,73
2023-04-18T00:10:15.132Z,73
2023-04-18T00:13:15.114Z,73
2023-04-18T00:16:15.164Z,73
2023-04-18T00:19:15.123Z,73
2023-04-18T00:22:15.108Z,73
2023-04-18T00:25:15.112Z,73
2023-04-18T00:28:15.122Z,73
2023-04-18T00:31:15.119Z,73
2023-04-18T00:34:15.248Z,73
2023-04-18T00:37:15.120Z,73
2023-04-18T00:40:15.132Z,74
2023-04-18T00:43:15.154Z,74
2023-04-18T00:46:15.159Z,74
2023-04-18T00:49:15.124Z,74
2023-04-18T00:52:15.126Z,74
2023-04-18T00:55:15.110Z,74
2023-04-18T01:01:15.140Z,74
2023-04-18T01:04:15.333Z,73
2023-04-18T01:07:15.135Z,73
2023-04-18T01:10:15.121Z,73
2023-04-18T01:13:15.144Z,73
2023-04-18T01:16:15.143Z,73
2023-04-18T01:19:15.104Z,73
2023-04-18T01:22:15.122Z,73
2023-04-18T01:25:15.110Z,73
2023-04-18T01:28:15.130Z,73
2023-04-18T01:31:15.150Z,73
2023-04-18T01:34:15.308Z,74
2023-04-18T01:37:15.099Z,74
2023-04-18T01:40:15.092Z,74
2023-04-18T01:43:15.120Z,74
2023-04-18T01:46:15.110Z,74
2023-04-18T01:49:15.092Z,74
2023-04-18T01:52:15.101Z,74
2023-04-18T01:55:15.086Z,74
2023-04-18T01:58:15.094Z,75
2023-04-18T02:01:15.198Z,75
2023-04-18T02:04:15.268Z,75
2023-04-18T02:07:15.092Z,75
2023-04-18T02:10:15.198Z,75
2023-04-18T02:13:15.097Z,75
2023-04-18T02:16:15.137Z,75
2023-04-18T02:19:15.109Z,75
2023-04-18T02:22:15.086Z,75
2023-04-18T02:25:15.093Z,75
2023-04-18T02:28:15.107Z,75
2023-04-18T02:31:15.143Z,75
2023-04-18T02:34:15.184Z,75
2023-04-18T02:37:15.097Z,75
2023-04-18T02:40:15.102Z,75
2023-04-18T02:43:15.112Z,75
2023-04-18T02:46:15.140Z,75
2023-04-18T02:49:15.092Z,75
2023-04-18T02:52:15.079Z,75
2023-04-18T02:55:15.110Z,76
2023-04-18T02:58:15.074Z,76
2023-04-18T03:01:15.093Z,76
2023-04-18T03:04:15.183Z,76
2023-04-18T03:07:15.072Z,76
2023-04-18T03:10:15.142Z,76
2023-04-18T03:13:15.100Z,76
2023-04-18T03:16:15.138Z,76
2023-04-18T03:19:15.077Z,76
2023-04-18T03:22:15.079Z,76
2023-04-18T03:25:15.078Z,76
2023-04-18T03:28:15.072Z,76
2023-04-18T03:31:15.138Z,76
2023-04-18T03:34:15.262Z,76
2023-04-18T03:37:15.087Z,76
2023-04-18T03:40:15.075Z,76
2023-04-18T03:46:15.077Z,76
2023-04-18T03:49:15.063Z,76
2023-04-18T03:52:15.065Z,76
2023-04-18T03:55:15.077Z,76
2023-04-18T03:58:15.094Z,76
2023-04-18T04:01:15.062Z,76
2023-04-18T04:04:15.267Z,76
2023-04-18T04:07:15.066Z,76
2023-04-18T04:10:15.060Z,77
2023-04-18T04:13:15.082Z,77
2023-04-18T04:16:15.070Z,77
2023-04-18T04:22:15.063Z,77
2023-04-18T04:25:15.050Z,77
2023-04-18T04:28:15.054Z,77
2023-04-18T04:31:15.064Z,77
2023-04-18T04:34:15.184Z,77
2023-04-18T04:37:15.041Z,77
2023-04-18T04:40:15.055Z,77
2023-04-18T04:43:15.035Z,77
2023-04-18T04:46:15.087Z,77
2023-04-18T04:49:15.039Z,77
2023-04-18T04:52:15.032Z,77
2023-04-18T04:55:15.028Z,77
2023-04-18T04:58:15.031Z,77
2023-04-18T05:01:15.062Z,77
2023-04-18T05:04:15.315Z,78
2023-04-18T05:07:15.071Z,78
2023-04-18T05:10:15.037Z,78
2023-04-18T05:13:15.039Z,78
2023-04-18T05:16:15.063Z,78
2023-04-18T05:19:15.034Z,78
2023-04-18T05:22:15.036Z,78
2023-04-18T05:25:15.033Z,78
2023-04-18T05:28:15.028Z,78
2023-04-18T05:31:15.074Z,78
2023-04-18T05:34:15.250Z,78
2023-04-18T05:37:15.058Z,77
2023-04-18T05:40:15.031Z,77
2023-04-18T05:43:15.040Z,78
2023-04-18T05:49:15.035Z,78
2023-04-18T05:52:15.044Z,77
2023-04-18T05:55:15.047Z,77
2023-04-18T05:58:15.032Z,77
2023-04-18T06:01:15.035Z,77
2023-04-18T06:04:15.279Z,77
2023-04-18T06:07:15.052Z,77
2023-04-18T06:10:15.039Z,77
2023-04-18T06:13:15.036Z,77
2023-04-18T06:16:15.072Z,77
2023-04-18T06:19:15.031Z,77
2023-04-18T06:22:15.032Z,77
2023-04-18T06:25:15.028Z,77
2023-04-18T06:28:15.035Z,77
2023-04-18T06:31:17.141Z,77
2023-04-18T06:34:15.309Z,77
2023-04-18T06:37:15.025Z,77
2023-04-18T06:40:15.018Z,77
2023-04-18T06:43:15.029Z,77
2023-04-18T06:46:15.043Z,77
2023-04-18T06:49:15.032Z,77
2023-04-18T06:52:15.027Z,77
2023-04-18T06:55:15.020Z,77
2023-04-18T06:58:15.019Z,77
2023-04-18T07:01:15.082Z,77
2023-04-18T07:04:15.491Z,77
2023-04-18T07:07:15.006Z,77
2023-04-18T07:10:15.018Z,77
2023-04-18T07:13:15.016Z,77
2023-04-18T07:16:15.027Z,77
2023-04-18T07:19:15.012Z,77
2023-04-18T07:22:15.028Z,77
2023-04-18T07:25:15.009Z,77
2023-04-18T07:28:15.006Z,77
2023-04-18T07:31:15.013Z,77
2023-04-18T07:34:15.327Z,77
2023-04-18T07:37:15.221Z,77
2023-04-18T07:40:15.019Z,76
2023-04-18T07:43:15.009Z,76
2023-04-18T07:46:15.018Z,76
2023-04-18T07:49:15.211Z,76
2023-04-18T07:52:15.163Z,76
2023-04-18T07:55:15.012Z,76
2023-04-18T07:58:15.017Z,76
2023-04-18T08:01:15.016Z,76
2023-04-18T08:07:15.010Z,76
2023-04-18T08:10:15.007Z,76
2023-04-18T08:13:15.017Z,76
2023-04-18T08:16:16.986Z,76
2023-04-18T08:19:15.113Z,76
2023-04-18T08:22:15.005Z,76
2023-04-18T08:25:15.004Z,75
2023-04-18T08:28:15.007Z,75
2023-04-18T08:31:15.154Z,75
2023-04-18T08:34:15.006Z,75
2023-04-18T08:37:15.007Z,75
2023-04-18T08:40:15.008Z,75
2023-04-18T08:43:15.025Z,75
2023-04-18T08:46:15.024Z,75
2023-04-18T08:49:15.178Z,75
2023-04-18T08:52:15.027Z,75
2023-04-18T08:55:15.408Z,75
2023-04-18T09:01:15.013Z,75
2023-04-18T09:04:15.019Z,75
2023-04-18T09:07:15.001Z,75
2023-04-18T09:10:15.003Z,74
2023-04-18T09:13:14.984Z,74
2023-04-18T09:16:15.019Z,74
2023-04-18T09:19:15.313Z,74
2023-04-18T09:22:15.000Z,74
2023-04-18T09:25:15.001Z,74
2023-04-18T09:28:14.995Z,74
2023-04-18T09:31:15.110Z,74
2023-04-18T09:34:15.139Z,74
2023-04-18T09:37:15.007Z,73
2023-04-18T09:40:14.988Z,73
2023-04-18T09:43:14.985Z,73
2023-04-18T09:46:15.019Z,73
2023-04-18T09:49:15.181Z,73
2023-04-18T09:52:14.981Z,72
2023-04-18T09:55:14.985Z,72
2023-04-18T09:58:14.976Z,72
2023-04-18T10:01:15.015Z,72
2023-04-18T10:04:15.133Z,72
2023-04-18T10:07:14.968Z,72
2023-04-18T10:10:14.975Z,72
2023-04-18T10:13:14.969Z,72
2023-04-18T10:16:15.026Z,72
2023-04-18T10:19:15.082Z,72
2023-04-18T10:22:14.974Z,72
2023-04-18T10:25:14.986Z,72
2023-04-18T10:28:14.965Z,72
2023-04-18T10:31:15.025Z,71
2023-04-18T10:34:14.998Z,71
2023-04-18T10:37:14.966Z,71
2023-04-18T10:40:14.967Z,71
2023-04-18T10:43:14.969Z,71
2023-04-18T10:46:24.166Z,71
2023-04-18T10:49:15.262Z,71
2023-04-18T10:52:14.974Z,71
2023-04-18T10:55:14.956Z,71
2023-04-18T10:58:14.967Z,71
2023-04-18T11:01:15.000Z,71
2023-04-18T11:07:14.960Z,70
2023-04-18T11:10:14.965Z,70
2023-04-18T11:13:14.949Z,70
2023-04-18T11:16:15.030Z,70
2023-04-18T11:19:15.038Z,70
2023-04-18T11:22:15.069Z,70
2023-04-18T11:25:15.089Z,70
2023-04-18T11:28:15.042Z,70
2023-04-18T11:31:15.041Z,70
2023-04-18T11:34:15.152Z,70
2023-04-18T11:37:15.068Z,70
2023-04-18T11:40:15.032Z,70
2023-04-18T11:43:15.040Z,70
2023-04-18T11:46:15.035Z,70
2023-04-18T11:49:15.031Z,70
2023-04-18T11:52:15.032Z,70
2023-04-18T11:55:15.158Z,70
2023-04-18T11:58:15.050Z,70
2023-04-18T12:01:15.040Z,69
2023-04-18T12:04:15.260Z,69
2023-04-18T12:07:15.032Z,69
2023-04-18T12:10:15.055Z,69
2023-04-18T12:13:15.019Z,69
2023-04-18T12:16:15.060Z,69
2023-04-18T12:19:15.023Z,69
2023-04-18T12:22:15.025Z,69
2023-04-18T12:25:15.019Z,69
2023-04-18T12:28:15.037Z,69
2023-04-18T12:31:15.087Z,69
2023-04-18T12:34:15.360Z,69
2023-04-18T12:37:15.016Z,69
2023-04-18T12:40:15.012Z,69
2023-04-18T12:43:15.023Z,69
2023-04-18T12:46:15.038Z,69
2023-04-18T12:49:15.011Z,69
2023-04-18T12:52:15.003Z,69
2023-04-18T12:55:15.008Z,69
2023-04-18T12:58:15.008Z,69
2023-04-18T13:01:15.069Z,69
2023-04-18T13:04:15.182Z,69
2023-04-18T13:07:15.011Z,69
2023-04-18T13:10:15.014Z,69
2023-04-18T13:13:15.000Z,68
2023-04-18T13:16:15.018Z,68
2023-04-18T13:19:15.206Z,68
2023-04-18T13:22:15.007Z,68
2023-04-18T13:25:15.098Z,68
2023-04-18T13:28:15.419Z,68
2023-04-18T13:31:16.889Z,68
2023-04-18T13:34:14.987Z,68
2023-04-18T13:37:14.998Z,68
2023-04-18T13:40:15.010Z,68
2023-04-18T13:43:14.988Z,68
2023-04-18T13:46:15.004Z,68
2023-04-18T13:49:15.170Z,68
2023-04-18T13:52:14.979Z,68
2023-04-18T13:55:14.987Z,68
2023-04-18T13:58:14.994Z,68
2023-04-18T14:01:14.984Z,68
2023-04-18T14:04:15.175Z,68
2023-04-18T14:07:14.995Z,68
2023-04-18T14:10:14.978Z,68
2023-04-18T14:13:14.968Z,68
2023-04-18T14:16:15.000Z,67
2023-04-18T14:19:15.102Z,67
2023-04-18T14:22:14.974Z,67
2023-04-18T14:25:14.981Z,67
2023-04-18T14:28:14.974Z,67
2023-04-18T14:31:15.012Z,67
2023-04-18T14:34:14.979Z,67
2023-04-18T14:37:15.741Z,67
2023-04-18T14:43:14.966Z,67
2023-04-18T14:46:14.984Z,67
2023-04-18T14:49:15.172Z,67
2023-04-18T14:52:14.964Z,67
2023-04-18T14:55:14.974Z,67
2023-04-18T14:58:14.962Z,67
2023-04-18T15:01:14.969Z,67
2023-04-18T15:04:15.408Z,67
2023-04-18T15:07:14.971Z,67
2023-04-18T15:10:14.969Z,67
2023-04-18T15:13:14.964Z,67
2023-04-18T15:16:14.976Z,67
2023-04-18T15:19:14.946Z,67
2023-04-18T15:22:14.964Z,67
2023-04-18T15:25:14.966Z,67
2023-04-18T15:28:14.980Z,67
2023-04-18T15:31:14.947Z,67
2023-04-18T15:34:15.145Z,67
2023-04-18T15:37:14.954Z,67
2023-04-18T15:40:15.112Z,67
2023-04-18T15:43:15.004Z,67
2023-04-18T15:46:15.023Z,67
2023-04-18T15:49:14.981Z,67
2023-04-18T15:52:14.986Z,67
2023-04-18T15:55:14.997Z,67
2023-04-18T15:58:14.976Z,67
2023-04-18T16:01:15.028Z,67
2023-04-18T16:04:15.328Z,67
2023-04-18T16:07:14.974Z,67
2023-04-18T16:10:14.993Z,67
2023-04-18T16:13:14.985Z,67
2023-04-18T16:16:15.023Z,67
2023-04-18T16:19:15.002Z,67
2023-04-18T16:22:14.989Z,67
2023-04-18T16:25:14.977Z,67
2023-04-18T16:28:14.989Z,67
2023-04-18T16:31:14.999Z,67
2023-04-18T16:34:15.147Z,67
2023-04-18T16:37:14.977Z,67
2023-04-18T16:40:14.989Z,67
2023-04-18T16:43:14.977Z,67
2023-04-18T16:49:14.974Z,67
2023-04-18T16:52:14.975Z,67
2023-04-18T16:55:15.012Z,67
2023-04-18T16:58:14.975Z,67
2023-04-18T17:01:15.023Z,67
2023-04-18T17:04:15.123Z,67
2023-04-18T17:07:15.014Z,67
2023-04-18T17:10:14.981Z,67
2023-04-18T17:13:15.001Z,67
2023-04-18T17:16:15.018Z,67
2023-04-18T17:19:15.117Z,67
2023-04-18T17:22:14.999Z,67
2023-04-18T17:25:15.007Z,67
2023-04-18T17:28:14.971Z,67
2023-04-18T17:31:15.015Z,67
2023-04-18T17:34:14.987Z,67
2023-04-18T17:37:14.972Z,68
2023-04-18T17:40:14.969Z,68
2023-04-18T17:43:15.014Z,68
2023-04-18T17:46:14.982Z,68
2023-04-18T17:52:14.952Z,68
2023-04-18T17:55:15.010Z,68
2023-04-18T17:58:14.960Z,68
2023-04-18T18:01:14.987Z,68
2023-04-18T18:04:15.001Z,68
2023-04-18T18:07:14.954Z,68
2023-04-18T18:10:15.004Z,68
2023-04-18T18:13:14.959Z,68
2023-04-18T18:16:15.000Z,68
2023-04-18T18:22:14.995Z,68
2023-04-18T18:25:14.959Z,68
2023-04-18T18:28:14.995Z,68
2023-04-18T18:31:14.960Z,68
2023-04-18T18:34:14.946Z,68
2023-04-18T18:37:14.932Z,69
2023-04-18T18:40:14.960Z,69
2023-04-18T18:43:14.936Z,69
2023-04-18T18:46:14.985Z,69
2023-04-18T18:49:15.036Z,69
2023-04-18T18:52:14.940Z,69
2023-04-18T18:55:14.941Z,69
2023-04-18T18:58:14.930Z,69
2023-04-18T19:01:14.949Z,69
2023-04-18T19:04:15.045Z,69
2023-04-18T19:07:14.932Z,69
2023-04-18T19:10:14.942Z,69
2023-04-18T19:13:14.943Z,69
2023-04-18T19:16:15.022Z,69
2023-04-18T19:19:15.172Z,69
2023-04-18T19:22:14.940Z,70
2023-04-18T19:25:14.947Z,70
2023-04-18T19:28:14.935Z,70
2023-04-18T19:31:14.963Z,70
2023-04-18T19:34:14.938Z,70
2023-04-18T19:37:14.940Z,70
2023-04-18T19:40:14.949Z,70
2023-04-18T19:43:14.935Z,70
2023-04-18T19:46:14.965Z,70
2023-04-18T19:49:15.127Z,70
2023-04-18T19:52:14.929Z,70
2023-04-18T19:55:14.943Z,70
2023-04-18T19:58:14.931Z,70
2023-04-18T20:01:14.958Z,70
2023-04-18T20:07:14.920Z,70
2023-04-18T20:10:14.936Z,70
2023-04-18T20:13:14.921Z,70
2023-04-18T20:16:14.954Z,70
2023-04-18T20:19:15.192Z,70
2023-04-18T20:22:15.062Z,70
2023-04-18T20:25:14.912Z,70
2023-04-18T20:28:14.923Z,70
2023-04-18T20:31:14.925Z,71
2023-04-18T20:34:14.919Z,71
2023-04-18T20:37:14.919Z,71
2023-04-18T20:40:14.913Z,71
2023-04-18T20:43:14.948Z,71
2023-04-18T20:46:14.920Z,71
2023-04-18T20:49:15.062Z,71
2023-04-18T20:52:14.914Z,71
2023-04-18T20:55:14.916Z,71
2023-04-18T20:58:14.911Z,71
2023-04-18T21:01:14.953Z,71
2023-04-18T21:04:15.080Z,71
2023-04-18T21:07:14.908Z,71
2023-04-18T21:10:14.917Z,71
2023-04-18T21:13:14.916Z,71
2023-04-18T21:16:14.990Z,71
2023-04-18T21:19:14.902Z,71
2023-04-18T21:22:14.920Z,71
2023-04-18T21:25:14.903Z,71
2023-04-18T21:28:14.903Z,71
2023-04-18T21:31:14.934Z,71
2023-04-18T21:34:15.047Z,71
2023-04-18T21:37:14.907Z,71
2023-04-18T21:40:14.917Z,71
2023-04-18T21:43:14.900Z,71
2023-04-18T21:46:14.968Z,72
2023-04-18T21:49:14.900Z,72
2023-04-18T21:52:14.909Z,72
2023-04-18T21:55:14.902Z,72
2023-04-18T21:58:14.885Z,72
2023-04-18T22:01:14.942Z,72
2023-04-18T22:04:15.202Z,72
2023-04-18T22:07:14.912Z,72
2023-04-18T22:10:15.033Z,72
2023-04-18T22:13:14.888Z,72
2023-04-18T22:16:14.898Z,72
2023-04-18T22:19:14.880Z,72
2023-04-18T22:22:14.885Z,72
2023-04-18T22:25:14.907Z,72
2023-04-18T22:28:14.876Z,73
2023-04-18T22:31:14.909Z,73
2023-04-18T22:34:15.057Z,73
2023-04-18T22:37:14.870Z,73
2023-04-18T22:40:14.878Z,73
2023-04-18T22:43:14.906Z,73
2023-04-18T22:46:14.909Z,73
2023-04-18T22:49:14.880Z,73
2023-04-18T22:52:14.875Z,73
2023-04-18T22:55:14.887Z,73
2023-04-18T22:58:14.903Z,73
2023-04-18T23:01:14.920Z,73
2023-04-18T23:04:15.107Z,73
2023-04-18T23:07:14.869Z,73
2023-04-18T23:10:14.898Z,73
2023-04-18T23:13:14.885Z,73
2023-04-18T23:16:14.922Z,73
2023-04-18T23:19:14.873Z,73
2023-04-18T23:22:14.878Z,73
2023-04-18T23:25:14.875Z,73
2023-04-18T23:28:14.890Z,73
2023-04-18T23:31:14.889Z,73
2023-04-18T23:34:15.083Z,73
2023-04-18T23:37:14.874Z,73
2023-04-18T23:40:14.877Z,73
2023-04-18T23:43:14.871Z,73
2023-04-18T23:46:14.892Z,73
2023-04-18T23:49:14.931Z,73
2023-04-18T23:52:14.858Z,73
2023-04-18T23:55:14.873Z,73
2023-04-18T23:58:14.860Z,73
